Time;durP1;ratioP1;P1;durP2;ratioP2;P2;SDS_P1;SDS_P2;PMS_P1;PMS_P2;Temp;Humidity;BMP_temperature;BMP_pressure;BME280_temperature;BME280_humidity;BME280_pressure;Samples;Min_cycle;Max_cycle;Signal;HPM_P1;HPM_P2
2023/06/19 00:00:51;;;;;;;10.23;7.35;;;21.60;68.50;;;;;;5077581;28;20124;-74
2023/06/19 00:03:17;;;;;;;11.10;7.80;;;21.60;68.50;;;;;;5078147;28;20095;-75
2023/06/19 00:05:42;;;;;;;10.52;7.28;;;21.60;68.60;;;;;;5077974;28;20028;-75
2023/06/19 00:08:08;;;;;;;11.70;7.97;;;21.60;68.60;;;;;;5077497;28;20515;-75
2023/06/19 00:10:34;;;;;;;8.88;6.90;;;21.60;68.50;;;;;;5077654;28;20036;-76
2023/06/19 00:13:01;;;;;;;11.43;7.30;;;21.60;68.60;;;;;;5077714;28;20020;-75
2023/06/19 00:15:29;;;;;;;10.52;7.65;;;21.50;68.60;;;;;;5077898;28;20116;-75
2023/06/19 00:17:56;;;;;;;8.70;6.47;;;21.50;68.70;;;;;;5077252;28;20103;-75
2023/06/19 00:20:23;;;;;;;10.93;7.95;;;21.50;68.70;;;;;;5078050;28;20032;-75
2023/06/19 00:22:51;;;;;;;11.05;7.45;;;21.50;68.90;;;;;;5077522;28;20037;-75
2023/06/19 00:25:20;;;;;;;9.88;7.32;;;21.50;68.90;;;;;;5077154;28;20032;-75
2023/06/19 00:27:47;;;;;;;10.13;7.03;;;21.40;69.00;;;;;;5077158;28;20476;-75
2023/06/19 00:30:13;;;;;;;9.85;7.57;;;21.40;68.90;;;;;;5076971;28;20465;-75
2023/06/19 00:32:46;;;;;;;10.68;7.10;;;21.40;69.10;;;;;;5077265;28;20032;-75
2023/06/19 00:35:15;;;;;;;11.32;8.00;;;21.40;69.20;;;;;;5077822;28;20028;-75
2023/06/19 00:37:44;;;;;;;9.98;7.60;;;21.30;69.30;;;;;;5076927;28;20103;-75
2023/06/19 00:40:27;;;;;;;9.15;7.07;;;21.20;69.50;;;;;;5076930;28;20086;-75
2023/06/19 00:42:53;;;;;;;9.73;7.47;;;21.20;69.40;;;;;;5077459;28;20061;-75
2023/06/19 00:45:19;;;;;;;10.90;8.00;;;21.20;69.50;;;;;;5076851;28;20025;-75
2023/06/19 00:47:45;;;;;;;11.18;8.05;;;21.10;69.80;;;;;;5076715;28;20333;-75
2023/06/19 00:50:12;;;;;;;9.35;7.32;;;21.00;70.10;;;;;;5076637;28;20035;-76
2023/06/19 00:52:38;;;;;;;11.82;7.97;;;21.00;70.10;;;;;;5076657;28;20032;-76
2023/06/19 00:55:07;;;;;;;9.15;7.05;;;20.90;70.20;;;;;;5076963;28;20111;-76
2023/06/19 00:57:33;;;;;;;9.57;7.30;;;20.90;70.20;;;;;;5076457;28;20108;-76
2023/06/19 00:59:59;;;;;;;10.80;8.45;;;20.90;70.30;;;;;;5076993;28;20082;-75
2023/06/19 01:02:26;;;;;;;11.07;7.85;;;20.90;70.50;;;;;;5076446;28;20036;-74
2023/06/19 01:04:52;;;;;;;9.68;7.10;;;20.90;70.60;;;;;;5076647;28;20031;-75
2023/06/19 01:07:28;;;;;;;10.57;7.82;;;20.90;70.60;;;;;;5076546;28;20048;-75
2023/06/19 01:10:03;;;;;;;10.65;7.15;;;20.90;70.70;;;;;;5076064;28;20028;-75
2023/06/19 01:12:35;;;;;;;9.43;7.10;;;20.90;70.70;;;;;;5076500;28;20103;-75
2023/06/19 01:15:05;;;;;;;9.52;7.38;;;20.90;70.80;;;;;;5058497;28;20123;-75
2023/06/19 01:17:32;;;;;;;9.68;7.43;;;20.80;70.90;;;;;;5076035;28;20450;-75
2023/06/19 01:19:59;;;;;;;10.93;7.90;;;20.80;71.00;;;;;;5076051;28;20132;-74
2023/06/19 01:22:29;;;;;;;10.55;7.72;;;20.70;71.10;;;;;;5076051;28;20028;-75
2023/06/19 01:24:55;;;;;;;10.70;7.90;;;20.70;71.10;;;;;;5075875;28;20048;-75
2023/06/19 01:27:22;;;;;;;9.32;7.00;;;20.70;71.10;;;;;;5076095;28;20046;-75
2023/06/19 01:29:49;;;;;;;9.52;6.70;;;20.70;71.20;;;;;;5076115;28;20032;-75
2023/06/19 01:32:39;;;;;;;11.25;8.05;;;20.60;71.30;;;;;;5076137;28;20056;-74
2023/06/19 01:35:09;;;;;;;11.23;7.88;;;20.60;71.40;;;;;;5075140;28;20366;-75
2023/06/19 01:37:37;;;;;;;11.13;8.18;;;20.60;71.40;;;;;;5075795;28;20095;-75
2023/06/19 01:40:09;;;;;;;11.05;7.63;;;20.60;71.60;;;;;;5075710;28;20024;-75
2023/06/19 01:42:37;;;;;;;9.68;7.40;;;20.50;71.60;;;;;;5076027;28;20047;-75
2023/06/19 01:45:05;;;;;;;11.07;8.02;;;20.50;71.70;;;;;;5076129;28;20354;-75
2023/06/19 01:47:31;;;;;;;11.30;7.60;;;20.50;71.80;;;;;;5075829;28;20032;-75
2023/06/19 01:49:57;;;;;;;13.18;8.68;;;20.50;71.80;;;;;;5075957;28;20028;-75
2023/06/19 01:52:24;;;;;;;11.60;8.60;;;20.40;71.80;;;;;;5075523;28;20134;-75
2023/06/19 01:54:50;;;;;;;10.95;8.50;;;20.40;71.90;;;;;;5041565;28;20407;-75
2023/06/19 01:57:16;;;;;;;10.75;7.80;;;20.40;72.00;;;;;;5075449;28;20028;-75
2023/06/19 01:59:42;;;;;;;10.82;8.02;;;20.40;72.10;;;;;;5075424;28;20048;-75
2023/06/19 02:02:09;;;;;;;10.50;7.90;;;20.40;72.10;;;;;;5075908;28;20044;-74
2023/06/19 02:04:35;;;;;;;10.82;7.80;;;20.40;72.20;;;;;;5075302;28;20016;-75
2023/06/19 02:07:01;;;;;;;10.45;8.27;;;20.40;72.20;;;;;;5075227;28;20024;-75
2023/06/19 02:09:27;;;;;;;9.77;7.72;;;20.40;72.20;;;;;;5075494;28;20059;-75
2023/06/19 02:11:53;;;;;;;13.82;8.80;;;20.40;72.20;;;;;;5075766;28;20028;-75
2023/06/19 02:14:19;;;;;;;11.88;8.20;;;20.40;72.20;;;;;;5075267;28;20066;-75
2023/06/19 02:16:45;;;;;;;11.95;8.88;;;20.30;72.20;;;;;;5075322;28;20095;-75
2023/06/19 02:19:11;;;;;;;10.18;7.72;;;20.30;72.50;;;;;;5075432;28;20476;-75
2023/06/19 02:21:38;;;;;;;10.70;7.68;;;20.30;72.40;;;;;;5075254;28;20067;-74
2023/06/19 02:24:05;;;;;;;12.23;7.82;;;20.30;72.40;;;;;;5075112;28;20059;-75
2023/06/19 02:26:31;;;;;;;10.27;7.82;;;20.30;72.40;;;;;;5075344;28;20103;-75
2023/06/19 02:28:57;;;;;;;10.10;7.50;;;20.30;72.50;;;;;;5075028;28;20017;-75
2023/06/19 02:31:23;;;;;;;10.40;7.80;;;20.30;72.50;;;;;;5075054;28;20024;-75
2023/06/19 02:33:50;;;;;;;10.05;7.57;;;20.30;72.50;;;;;;5075019;28;20028;-75
2023/06/19 02:36:19;;;;;;;10.77;8.05;;;20.30;72.50;;;;;;5075447;28;20020;-75
2023/06/19 02:38:49;;;;;;;11.77;8.77;;;20.30;72.60;;;;;;5075528;28;20016;-74
2023/06/19 02:41:15;;;;;;;10.70;7.50;;;20.30;72.50;;;;;;5075248;28;20038;-75
2023/06/19 02:43:42;;;;;;;10.13;7.63;;;20.20;72.50;;;;;;5075453;28;20495;-74
2023/06/19 02:46:09;;;;;;;10.38;7.63;;;20.20;72.60;;;;;;5074868;28;20056;-75
2023/06/19 02:48:35;;;;;;;12.02;8.43;;;20.20;72.70;;;;;;5074921;28;20074;-75
2023/06/19 02:51:01;;;;;;;11.82;8.25;;;20.20;72.80;;;;;;5075308;28;20074;-75
2023/06/19 02:53:27;;;;;;;11.68;8.38;;;20.20;72.80;;;;;;5074870;28;20032;-75
2023/06/19 02:55:53;;;;;;;12.90;7.95;;;20.20;72.90;;;;;;5075249;28;20031;-75
2023/06/19 02:58:19;;;;;;;10.40;7.38;;;20.20;72.80;;;;;;5074689;28;20037;-75
2023/06/19 03:00:46;;;;;;;10.55;7.72;;;20.10;72.80;;;;;;5075308;28;20033;-75
2023/06/19 03:03:12;;;;;;;10.73;8.35;;;20.20;72.80;;;;;;5074694;28;20515;-76
2023/06/19 03:05:38;;;;;;;11.98;8.18;;;20.20;72.90;;;;;;5074661;28;20112;-75
2023/06/19 03:08:05;;;;;;;11.25;7.78;;;20.20;72.70;;;;;;5074756;28;20028;-76
2023/06/19 03:10:31;;;;;;;11.65;8.00;;;20.20;72.70;;;;;;5074836;28;20108;-76
2023/06/19 03:12:58;;;;;;;10.85;7.32;;;20.20;72.90;;;;;;5074680;28;20021;-76
2023/06/19 03:15:25;;;;;;;10.43;8.23;;;20.20;72.90;;;;;;5074596;28;20109;-75
2023/06/19 03:17:53;;;;;;;11.70;7.80;;;20.20;73.00;;;;;;5056861;28;20024;-75
2023/06/19 03:20:20;;;;;;;9.35;7.00;;;20.30;73.00;;;;;;5074845;28;20032;-75
2023/06/19 03:22:46;;;;;;;10.90;7.72;;;20.30;72.80;;;;;;5074854;28;20082;-75
2023/06/19 03:25:12;;;;;;;9.57;7.22;;;20.30;72.90;;;;;;5074404;28;20060;-75
2023/06/19 03:27:38;;;;;;;11.48;7.35;;;20.30;73.00;;;;;;5074678;28;20362;-75
2023/06/19 03:30:06;;;;;;;10.75;8.07;;;20.30;73.00;;;;;;5074375;28;20029;-75
2023/06/19 03:32:34;;;;;;;11.63;7.70;;;20.30;73.10;;;;;;5075082;28;20029;-75
2023/06/19 03:35:02;;;;;;;12.40;7.80;;;20.40;73.00;;;;;;5078613;28;20078;-75
2023/06/19 03:37:28;;;;;;;13.10;7.85;;;20.40;73.00;;;;;;5078567;28;20434;-75
2023/06/19 03:39:53;;;;;;;11.65;8.38;;;20.40;72.90;;;;;;5078058;28;20038;-75
2023/06/19 03:42:19;;;;;;;11.48;8.25;;;20.40;72.90;;;;;;5078315;28;20115;-74
2023/06/19 03:44:45;;;;;;;10.52;7.90;;;20.50;72.90;;;;;;5078480;28;20418;-75
2023/06/19 03:47:11;;;;;;;10.95;7.80;;;20.50;72.80;;;;;;5077898;28;20029;-75
2023/06/19 03:49:37;;;;;;;12.00;8.52;;;20.50;72.90;;;;;;5078580;28;20040;-75
2023/06/19 03:52:06;;;;;;;13.68;8.30;;;20.60;72.90;;;;;;5077835;28;20032;-75
2023/06/19 03:54:32;;;;;;;12.18;8.50;;;20.60;72.80;;;;;;5077801;28;20028;-75
2023/06/19 03:56:58;;;;;;;13.02;8.52;;;20.60;72.90;;;;;;5077699;28;20031;-75
2023/06/19 03:59:24;;;;;;;11.80;8.43;;;20.60;72.80;;;;;;5077729;28;20474;-75
2023/06/19 04:01:49;;;;;;;11.82;7.88;;;20.60;72.90;;;;;;5077644;28;20024;-75
2023/06/19 04:04:15;;;;;;;12.93;8.65;;;20.70;72.90;;;;;;5077903;28;20029;-75
2023/06/19 04:06:41;;;;;;;12.85;8.25;;;20.60;72.80;;;;;;5077527;28;20097;-75
2023/06/19 04:09:08;;;;;;;13.77;9.93;;;20.60;72.90;;;;;;5077748;28;20060;-75
2023/06/19 04:11:34;;;;;;;15.25;9.00;;;20.60;72.80;;;;;;5077519;28;20034;-75
2023/06/19 04:14:00;;;;;;;11.07;7.93;;;20.70;73.20;;;;;;5077738;28;20400;-75
2023/06/19 04:16:26;;;;;;;11.88;8.60;;;20.70;73.10;;;;;;5077359;28;20461;-75
2023/06/19 04:18:52;;;;;;;13.38;8.55;;;20.70;73.00;;;;;;5077922;28;20078;-75
2023/06/19 04:21:18;;;;;;;12.75;8.68;;;20.80;73.00;;;;;;5077327;28;20039;-75
2023/06/19 04:23:43;;;;;;;14.65;9.23;;;20.80;73.00;;;;;;5077231;28;20063;-75
2023/06/19 04:26:09;;;;;;;11.77;8.30;;;20.80;73.00;;;;;;5077409;28;20032;-75
2023/06/19 04:28:35;;;;;;;14.98;8.90;;;20.90;72.90;;;;;;5077715;28;20350;-75
2023/06/19 04:31:01;;;;;;;13.15;8.20;;;20.90;72.90;;;;;;5077521;28;20020;-75
2023/06/19 04:33:29;;;;;;;11.98;8.88;;;20.90;72.90;;;;;;5077087;28;20020;-75
2023/06/19 04:35:55;;;;;;;13.63;9.48;;;20.90;72.90;;;;;;5076995;28;20027;-75
2023/06/19 04:38:24;;;;;;;11.57;8.43;;;21.00;72.70;;;;;;5077014;28;20020;-75
2023/06/19 04:40:51;;;;;;;10.98;8.43;;;21.00;72.50;;;;;;5077222;28;20024;-75
2023/06/19 04:43:17;;;;;;;11.13;8.05;;;21.10;72.40;;;;;;5076897;28;20099;-75
2023/06/19 04:45:43;;;;;;;12.02;8.75;;;21.20;72.30;;;;;;5076787;28;20029;-75
2023/06/19 04:48:09;;;;;;;11.30;8.35;;;21.20;72.20;;;;;;5076730;28;20051;-75
2023/06/19 04:50:35;;;;;;;10.30;7.72;;;21.30;72.00;;;;;;5077184;28;20346;-75
2023/06/19 04:53:01;;;;;;;12.38;8.52;;;21.40;72.10;;;;;;5059078;28;20027;-75
2023/06/19 04:55:27;;;;;;;10.30;7.90;;;21.40;71.90;;;;;;5077167;28;20078;-75
2023/06/19 04:57:54;;;;;;;11.65;8.77;;;21.50;71.90;;;;;;5076491;28;20064;-75
2023/06/19 05:00:23;;;;;;;13.10;9.20;;;21.60;72.00;;;;;;5077045;28;20044;-75
2023/06/19 05:02:49;;;;;;;11.98;8.00;;;21.60;71.80;;;;;;5076730;28;20046;-75
2023/06/19 05:05:16;;;;;;;12.23;8.98;;;21.70;71.60;;;;;;5076681;28;20020;-75
2023/06/19 05:07:42;;;;;;;14.80;10.45;;;21.80;71.40;;;;;;5076585;28;20029;-75
2023/06/19 05:10:09;;;;;;;12.65;9.35;;;21.90;71.40;;;;;;5076800;28;20017;-75
2023/06/19 05:12:35;;;;;;;11.85;8.02;;;21.90;71.20;;;;;;5076857;28;20021;-75
2023/06/19 05:15:02;;;;;;;17.73;11.63;;;21.90;71.00;;;;;;5076500;28;20020;-76
2023/06/19 05:17:28;;;;;;;13.02;9.48;;;22.00;71.20;;;;;;5076059;28;20024;-73
2023/06/19 05:19:54;;;;;;;14.23;11.10;;;22.10;71.00;;;;;;5076070;28;20036;-75
2023/06/19 05:22:21;;;;;;;12.98;10.10;;;22.20;71.10;;;;;;5076273;28;20020;-74
2023/06/19 05:24:47;;;;;;;16.42;11.30;;;22.20;70.70;;;;;;5075842;28;20060;-74
2023/06/19 05:27:13;;;;;;;12.10;10.00;;;22.30;70.50;;;;;;5075934;28;20029;-74
2023/06/19 05:29:39;;;;;;;13.95;9.63;;;22.40;70.30;;;;;;5075895;28;20123;-74
2023/06/19 05:32:05;;;;;;;11.45;8.77;;;22.40;70.30;;;;;;5076131;28;20016;-74
2023/06/19 05:34:31;;;;;;;13.93;9.93;;;22.60;70.10;;;;;;5076078;28;20023;-74
2023/06/19 05:37:00;;;;;;;12.35;9.35;;;22.80;69.90;;;;;;5075867;28;20016;-74
2023/06/19 05:39:26;;;;;;;13.77;10.38;;;23.10;69.50;;;;;;5075673;28;20028;-74
2023/06/19 05:41:52;;;;;;;12.98;8.85;;;24.10;69.00;;;;;;5076229;28;20029;-73
2023/06/19 05:44:20;;;;;;;14.13;10.05;;;25.40;67.00;;;;;;5075569;28;20055;-74
2023/06/19 05:46:46;;;;;;;12.68;9.38;;;26.70;64.40;;;;;;5057954;28;20123;-74
2023/06/19 05:49:12;;;;;;;12.70;8.10;;;27.90;61.80;;;;;;5075515;28;20028;-74
2023/06/19 05:51:38;;;;;;;10.65;8.35;;;28.90;59.40;;;;;;5075497;28;20028;-74
2023/06/19 05:54:04;;;;;;;13.52;9.63;;;30.00;57.10;;;;;;5058313;28;20426;-74
2023/06/19 05:56:33;;;;;;;14.13;10.32;;;30.90;54.90;;;;;;5075227;28;20032;-74
2023/06/19 05:59:01;;;;;;;11.80;8.52;;;32.00;52.60;;;;;;5076021;28;20024;-74
2023/06/19 06:01:30;;;;;;;11.80;8.35;;;32.90;50.60;;;;;;5075404;28;20034;-74
2023/06/19 06:04:05;;;;;;;10.98;8.00;;;33.90;49.00;;;;;;5058438;28;20096;-74
2023/06/19 06:06:34;;;;;;;11.25;7.28;;;34.80;47.20;;;;;;5075896;28;20115;-75
2023/06/19 06:09:06;;;;;;;10.63;8.07;;;35.40;45.80;;;;;;5075263;28;20032;-73
2023/06/19 06:11:42;;;;;;;10.02;8.18;;;36.20;44.70;;;;;;5075323;28;20418;-74
2023/06/19 06:14:10;;;;;;;10.95;8.10;;;36.70;43.30;;;;;;5075576;28;20032;-73
2023/06/19 06:16:36;;;;;;;11.35;8.45;;;37.10;42.10;;;;;;5075455;28;20025;-75
2023/06/19 06:19:02;;;;;;;9.65;6.82;;;37.40;40.70;;;;;;5075781;28;20028;-74
2023/06/19 06:21:28;;;;;;;12.63;8.50;;;37.50;40.10;;;;;;5075185;28;20028;-74
2023/06/19 06:23:54;;;;;;;9.20;7.18;;;37.70;39.10;;;;;;5074961;28;20067;-74
2023/06/19 06:26:21;;;;;;;8.02;5.63;;;37.90;38.20;;;;;;5075046;28;20111;-75
2023/06/19 06:28:49;;;;;;;9.45;7.22;;;38.10;37.90;;;;;;5075413;28;20064;-75
2023/06/19 06:33:46;;;;;;;18.75;7.55;;;38.70;35.40;;;;;;5075922;28;20027;-74
2023/06/19 06:36:15;;;;;;;11.40;6.70;;;38.60;35.90;;;;;;5074997;28;20024;-74
2023/06/19 06:38:41;;;;;;;8.38;5.68;;;38.20;35.80;;;;;;5075007;28;20028;-74
2023/06/19 06:41:08;;;;;;;13.50;6.80;;;37.50;36.50;;;;;;5075299;28;20043;-73
2023/06/19 06:43:34;;;;;;;11.20;7.18;;;36.70;37.50;;;;;;5074893;28;20063;-73
2023/06/19 06:48:26;;;;;;;8.95;5.50;;;35.10;39.60;;;;;;5075501;28;20028;-73
2023/06/19 06:51:00;;;;;;;9.98;6.75;;;34.20;40.80;;;;;;5074845;28;20035;-73
2023/06/19 06:53:28;;;;;;;11.68;7.40;;;33.50;42.00;;;;;;5075208;28;20090;-73
2023/06/19 06:55:57;;;;;;;10.63;7.75;;;32.90;42.80;;;;;;5074779;28;20032;-74
2023/06/19 06:58:22;;;;;;;8.95;6.55;;;32.40;43.70;;;;;;5074808;28;20442;-73
2023/06/19 07:00:50;;;;;;;8.85;6.22;;;32.10;44.30;;;;;;5074822;28;20050;-73
2023/06/19 07:03:18;;;;;;;11.77;6.72;;;31.70;44.90;;;;;;5074701;28;20362;-74
2023/06/19 07:05:44;;;;;;;8.82;6.38;;;31.20;45.30;;;;;;5074927;28;20028;-74
2023/06/19 07:08:11;;;;;;;10.88;6.50;;;31.00;45.90;;;;;;5076172;28;20044;-73
2023/06/19 07:10:37;;;;;;;8.80;6.00;;;30.90;46.40;;;;;;5078870;28;20020;-73
2023/06/19 07:13:03;;;;;;;8.00;5.72;;;30.80;46.70;;;;;;5078682;28;20024;-74
2023/06/19 07:15:29;;;;;;;9.80;6.22;;;30.90;46.90;;;;;;5078787;28;20464;-73
2023/06/19 07:17:55;;;;;;;9.30;6.03;;;30.90;46.70;;;;;;5078484;28;20016;-73
2023/06/19 07:20:21;;;;;;;10.43;6.18;;;30.90;46.80;;;;;;5078465;28;20086;-73
2023/06/19 07:22:50;;;;;;;8.68;5.60;;;30.90;46.40;;;;;;5078739;28;20039;-74
2023/06/19 07:25:16;;;;;;;10.70;6.47;;;30.90;46.60;;;;;;5078255;28;20051;-74
2023/06/19 07:27:42;;;;;;;8.27;5.93;;;30.90;46.40;;;;;;5078524;28;20037;-74
2023/06/19 07:30:09;;;;;;;8.45;5.70;;;30.90;46.40;;;;;;5078195;28;20074;-73
2023/06/19 07:32:35;;;;;;;8.38;5.90;;;30.90;46.50;;;;;;5078511;28;20028;-74
2023/06/19 07:35:01;;;;;;;9.07;5.63;;;31.00;46.40;;;;;;5078688;28;20104;-73
2023/06/19 07:37:27;;;;;;;8.00;5.43;;;31.00;46.40;;;;;;5078047;28;20036;-74
2023/06/19 07:39:53;;;;;;;7.13;5.00;;;30.90;46.20;;;;;;5078330;28;20029;-74
2023/06/19 07:42:19;;;;;;;7.78;5.50;;;30.90;46.40;;;;;;5060500;28;20031;-74
2023/06/19 07:44:46;;;;;;;7.70;5.38;;;30.70;45.80;;;;;;5077929;28;20111;-74
2023/06/19 07:47:13;;;;;;;8.45;6.22;;;30.60;46.00;;;;;;5077883;28;20040;-74
2023/06/19 07:49:39;;;;;;;10.70;6.70;;;30.50;46.00;;;;;;5078122;28;20028;-74
2023/06/19 07:52:06;;;;;;;10.35;6.03;;;30.40;46.00;;;;;;5060687;28;20068;-74
2023/06/19 07:54:34;;;;;;;10.50;7.55;;;30.30;46.50;;;;;;5077836;28;20093;-74
2023/06/19 07:57:00;;;;;;;8.35;5.75;;;30.30;45.90;;;;;;5077919;28;20028;-74
2023/06/19 07:59:26;;;;;;;11.90;7.30;;;30.20;46.50;;;;;;5078044;28;20322;-74
2023/06/19 08:01:52;;;;;;;8.52;5.72;;;30.20;46.30;;;;;;5077701;28;20037;-74
2023/06/19 08:04:18;;;;;;;9.15;5.80;;;30.20;46.80;;;;;;5078174;28;20028;-74
2023/06/19 08:06:44;;;;;;;8.55;6.28;;;30.20;46.90;;;;;;5077535;28;20457;-73
2023/06/19 08:09:10;;;;;;;9.93;6.57;;;30.30;46.80;;;;;;5077738;28;20074;-73
2023/06/19 08:11:39;;;;;;;8.75;6.00;;;30.20;46.70;;;;;;5077596;28;20027;-73
2023/06/19 08:14:05;;;;;;;12.18;7.18;;;30.20;46.90;;;;;;5077410;28;20473;-73
2023/06/19 08:16:33;;;;;;;8.73;6.10;;;30.20;47.00;;;;;;5077558;28;20051;-74
2023/06/19 08:19:04;;;;;;;9.90;6.07;;;30.20;47.00;;;;;;5077007;28;20013;-73
2023/06/19 08:21:30;;;;;;;11.07;8.10;;;30.30;47.10;;;;;;5077328;28;20043;-73
2023/06/19 08:23:56;;;;;;;10.70;7.47;;;30.50;46.90;;;;;;5077449;28;20045;-74
2023/06/19 08:26:25;;;;;;;8.23;6.15;;;30.50;46.10;;;;;;5077435;28;20033;-74
2023/06/19 08:28:51;;;;;;;9.05;5.63;;;30.50;46.40;;;;;;5077092;28;20024;-74
2023/06/19 08:31:17;;;;;;;9.00;6.00;;;30.60;46.30;;;;;;5077579;28;20024;-73
2023/06/19 08:33:43;;;;;;;8.10;5.20;;;30.60;46.10;;;;;;5077631;28;20383;-74
2023/06/19 08:36:11;;;;;;;6.55;4.85;;;30.60;46.20;;;;;;5076984;28;20103;-74
2023/06/19 08:38:37;;;;;;;7.50;5.53;;;30.70;46.20;;;;;;5076922;28;20434;-74
2023/06/19 08:41:03;;;;;;;7.95;5.57;;;30.70;46.20;;;;;;5076898;28;20020;-74
2023/06/19 08:46:15;;;;;;;8.02;5.63;;;30.80;45.80;;;;;;5077523;28;20043;-73
2023/06/19 08:48:41;;;;;;;8.70;5.30;;;30.70;45.50;;;;;;5077107;28;20028;-72
2023/06/19 08:51:09;;;;;;;6.32;4.97;;;30.70;46.00;;;;;;5076559;28;20032;-74
2023/06/19 08:53:46;;;;;;;7.35;5.25;;;30.70;45.90;;;;;;5059145;28;20410;-72
2023/06/19 08:56:12;;;;;;;8.57;5.47;;;30.70;45.80;;;;;;5077186;28;20077;-73
2023/06/19 08:58:38;;;;;;;10.15;6.10;;;30.80;45.80;;;;;;5076621;28;20024;-74
2023/06/19 09:01:05;;;;;;;9.20;5.22;;;30.90;45.70;;;;;;5076764;28;20038;-73
2023/06/19 09:03:31;;;;;;;8.55;5.43;;;30.90;45.60;;;;;;5076767;28;20048;-73
2023/06/19 09:05:58;;;;;;;9.80;6.03;;;30.90;45.70;;;;;;5076795;28;20197;-77
2023/06/19 09:08:24;;;;;;;8.35;5.93;;;30.80;45.80;;;;;;5076454;28;20020;-77
2023/06/19 09:11:01;;;;;;;8.98;5.15;;;30.80;45.80;;;;;;5076504;28;20036;-77
2023/06/19 09:13:29;;;;;;;7.85;5.45;;;30.70;45.60;;;;;;5076575;28;20457;-77
2023/06/19 09:16:12;;;;;;;6.72;5.32;;;30.70;45.70;;;;;;5076601;28;20029;-78
2023/06/19 09:18:47;;;;;;;7.68;5.72;;;30.70;45.20;;;;;;5076516;28;20024;-77
2023/06/19 09:21:21;;;;;;;7.95;5.43;;;30.60;45.40;;;;;;5076061;28;20362;-77
2023/06/19 09:23:48;;;;;;;8.65;5.60;;;30.50;45.60;;;;;;5076135;28;20048;-77
2023/06/19 09:26:18;;;;;;;6.47;4.70;;;30.50;45.60;;;;;;5076276;28;20035;-77
2023/06/19 09:28:44;;;;;;;7.03;5.15;;;30.50;45.90;;;;;;5075968;28;20025;-77
2023/06/19 09:31:10;;;;;;;8.63;4.97;;;30.70;45.80;;;;;;5075346;28;20051;-77
2023/06/19 09:33:38;;;;;;;9.55;5.43;;;30.80;45.50;;;;;;5075928;28;20020;-78
2023/06/19 09:36:06;;;;;;;8.32;5.68;;;30.90;45.40;;;;;;5076324;28;20024;-77
2023/06/19 09:38:40;;;;;;;8.48;5.57;;;30.80;45.00;;;;;;5076393;28;20525;-77
2023/06/19 09:41:06;;;;;;;8.00;5.90;;;30.70;45.10;;;;;;5076116;28;20032;-77
2023/06/19 09:43:42;;;;;;;9.05;5.13;;;30.80;45.10;;;;;;5076291;28;20081;-77
2023/06/19 09:46:10;;;;;;;7.50;5.35;;;30.60;44.90;;;;;;5076212;28;20033;-77
2023/06/19 09:48:42;;;;;;;7.75;5.63;;;30.50;45.00;;;;;;5075732;28;20024;-77
2023/06/19 09:51:28;;;;;;;8.10;5.55;;;30.50;45.10;;;;;;5075601;28;20082;-77
2023/06/19 09:53:56;;;;;;;9.85;6.03;;;30.50;44.60;;;;;;5076156;28;20012;-77
2023/06/19 09:56:24;;;;;;;10.45;6.20;;;30.50;44.90;;;;;;5057892;28;20017;-78
2023/06/19 09:58:53;;;;;;;9.77;6.57;;;30.50;45.00;;;;;;5075461;28;20119;-78
2023/06/19 10:01:19;;;;;;;8.02;6.20;;;30.50;44.20;;;;;;5075455;28;20032;-77
2023/06/19 10:03:46;;;;;;;8.05;6.50;;;30.40;44.20;;;;;;5075644;28;20063;-76
2023/06/19 10:06:17;;;;;;;9.60;6.35;;;30.40;44.40;;;;;;5075312;28;20027;-76
2023/06/19 10:08:45;;;;;;;8.35;5.63;;;30.40;44.40;;;;;;5075824;28;20052;-77
2023/06/19 10:11:11;;;;;;;10.88;7.00;;;30.40;44.50;;;;;;5075242;28;20029;-78
2023/06/19 10:13:41;;;;;;;13.20;7.47;;;30.40;44.90;;;;;;5075264;28;20028;-78
2023/06/19 10:16:18;;;;;;;7.40;5.10;;;30.40;44.90;;;;;;5075160;28;20162;-77
2023/06/19 10:18:46;;;;;;;9.65;5.80;;;30.60;45.10;;;;;;5075534;28;20104;-77
2023/06/19 10:21:25;;;;;;;9.50;6.30;;;30.70;44.80;;;;;;5075439;28;20033;-77
2023/06/19 10:23:56;;;;;;;9.70;6.78;;;30.70;44.90;;;;;;5068947;28;20053;-77
2023/06/19 10:26:37;;;;;;;9.80;6.30;;;30.80;45.00;;;;;;5095344;28;20121;-75
2023/06/19 10:29:14;;;;;;;7.75;5.45;;;30.80;44.70;;;;;;5095899;28;20158;-75
2023/06/19 10:31:40;;;;;;;9.20;5.72;;;30.90;44.90;;;;;;5095617;28;20035;-75
2023/06/19 10:34:10;;;;;;;8.32;5.15;;;30.90;44.90;;;;;;5095571;28;20028;-75
2023/06/19 10:36:36;;;;;;;8.40;5.10;;;30.90;44.80;;;;;;5095208;28;20453;-75
2023/06/19 10:39:02;;;;;;;8.93;5.15;;;30.90;44.70;;;;;;5095213;28;20020;-75
2023/06/19 10:41:31;;;;;;;7.53;5.60;;;31.00;44.90;;;;;;5096473;28;20080;-75
2023/06/19 10:44:00;;;;;;;9.57;5.78;;;31.20;44.60;;;;;;5102574;28;20110;-75
2023/06/19 10:46:31;;;;;;;8.95;6.22;;;31.20;44.30;;;;;;5102338;28;20027;-75
2023/06/19 10:49:00;;;;;;;9.25;5.78;;;31.10;44.00;;;;;;5101869;28;20035;-77
2023/06/19 10:51:35;;;;;;;9.35;5.53;;;31.00;43.90;;;;;;5101999;28;20032;-77
2023/06/19 10:54:02;;;;;;;7.43;5.38;;;30.90;44.10;;;;;;5102345;28;20023;-77
2023/06/19 10:56:28;;;;;;;8.35;5.78;;;30.90;44.30;;;;;;5100792;28;20016;-77
2023/06/19 10:59:02;;;;;;;8.82;5.95;;;30.90;44.50;;;;;;5102048;28;20112;-77
2023/06/19 11:01:36;;;;;;;7.43;5.38;;;31.00;44.50;;;;;;5102331;28;20429;-77
2023/06/19 11:04:04;;;;;;;11.35;6.82;;;31.00;44.40;;;;;;5102077;28;20107;-77
2023/06/19 11:06:31;;;;;;;8.35;5.57;;;31.10;44.00;;;;;;5101913;28;20032;-77
2023/06/19 11:08:57;;;;;;;7.35;5.53;;;31.10;44.30;;;;;;5101968;28;20403;-77
2023/06/19 11:11:33;;;;;;;8.02;6.05;;;31.00;44.20;;;;;;5101842;28;20027;-77
2023/06/19 11:13:59;;;;;;;10.68;6.15;;;31.00;44.00;;;;;;5102004;28;20147;-77
2023/06/19 11:16:27;;;;;;;8.45;5.75;;;30.90;44.20;;;;;;5101592;28;20533;-78
2023/06/19 11:19:00;;;;;;;9.50;6.15;;;30.90;44.30;;;;;;5102063;28;20317;-77
2023/06/19 11:21:38;;;;;;;9.43;6.43;;;30.90;44.40;;;;;;5102260;28;20035;-75
2023/06/19 11:24:06;;;;;;;9.57;6.13;;;30.90;44.50;;;;;;5092438;28;20056;-75
2023/06/19 11:26:49;;;;;;;13.63;9.65;;;30.90;44.40;;;;;;5081736;28;20112;-77
2023/06/19 11:29:24;;;;;;;9.35;6.80;;;30.90;44.40;;;;;;5081452;28;20041;-77
2023/06/19 11:32:04;;;;;;;10.10;6.70;;;30.90;44.60;;;;;;5081538;28;20020;-77
2023/06/19 11:34:36;;;;;;;10.85;6.45;;;31.00;44.80;;;;;;5065850;28;20427;-77
2023/06/19 11:37:15;;;;;;;7.93;5.83;;;31.10;44.80;;;;;;5081604;28;20020;-75
2023/06/19 11:39:43;;;;;;;8.27;6.00;;;31.20;44.90;;;;;;5082526;28;20028;-75
2023/06/19 11:42:10;;;;;;;9.23;6.18;;;31.40;45.00;;;;;;5082460;28;20392;-74
2023/06/19 11:44:36;;;;;;;9.15;6.20;;;31.40;44.90;;;;;;5064007;28;20039;-74
2023/06/19 11:47:03;;;;;;;8.10;6.60;;;31.50;44.90;;;;;;5081691;28;20025;-74
2023/06/19 11:49:35;;;;;;;9.68;7.63;;;31.50;44.80;;;;;;5081273;28;20036;-75
2023/06/19 11:52:01;;;;;;;9.32;7.07;;;31.60;44.50;;;;;;5081802;28;20041;-74
2023/06/19 11:54:27;;;;;;;9.13;6.65;;;31.60;44.60;;;;;;5078943;28;20044;-74
2023/06/19 11:56:53;;;;;;;10.02;6.70;;;31.60;44.90;;;;;;5078358;28;20238;-74
2023/06/19 11:59:22;;;;;;;8.20;6.45;;;31.70;45.00;;;;;;5078746;28;20035;-75
2023/06/19 12:01:49;;;;;;;8.48;6.13;;;31.80;45.00;;;;;;5078845;28;20020;-75
2023/06/19 12:04:16;;;;;;;10.25;7.28;;;31.90;45.10;;;;;;5078198;28;20105;-75
2023/06/19 12:06:42;;;;;;;8.93;6.68;;;32.00;45.00;;;;;;5060369;28;20070;-75
2023/06/19 12:09:08;;;;;;;10.05;6.75;;;32.10;45.10;;;;;;5077881;28;20020;-74
2023/06/19 12:11:34;;;;;;;11.57;8.70;;;32.10;44.90;;;;;;5077770;28;20025;-76
2023/06/19 12:14:00;;;;;;;12.40;8.68;;;32.00;44.90;;;;;;5077783;28;20393;-77
2023/06/19 12:16:28;;;;;;;10.65;7.70;;;31.90;45.30;;;;;;5077631;28;20112;-77
2023/06/19 12:18:54;;;;;;;9.80;7.20;;;31.90;45.50;;;;;;5077356;28;20074;-77
2023/06/19 12:21:20;;;;;;;10.48;7.45;;;31.80;45.30;;;;;;5077437;28;20036;-77
2023/06/19 12:23:46;;;;;;;12.20;9.38;;;31.70;45.20;;;;;;5069040;28;20182;-76
2023/06/19 12:26:12;;;;;;;9.40;7.18;;;31.50;45.60;;;;;;5097706;28;20472;-76
2023/06/19 12:28:38;;;;;;;12.48;7.95;;;31.50;45.50;;;;;;5097613;28;20369;-76
2023/06/19 12:31:04;;;;;;;8.80;7.20;;;31.50;45.90;;;;;;5097626;28;20427;-76
2023/06/19 12:33:32;;;;;;;9.43;7.60;;;31.50;45.90;;;;;;5097629;28;20032;-76
2023/06/19 12:36:00;;;;;;;8.73;6.95;;;31.50;46.10;;;;;;5097769;28;20031;-77
2023/06/19 12:38:26;;;;;;;10.55;7.50;;;31.60;46.00;;;;;;5096319;28;20024;-77
2023/06/19 12:40:52;;;;;;;9.43;7.68;;;31.70;45.70;;;;;;5097208;28;20028;-77
2023/06/19 12:43:18;;;;;;;10.50;7.68;;;31.70;45.40;;;;;;5098055;28;20039;-77
2023/06/19 12:45:44;;;;;;;9.77;6.70;;;31.80;45.50;;;;;;5097083;28;20128;-77
2023/06/19 12:48:11;;;;;;;8.52;6.68;;;31.80;45.50;;;;;;5097100;28;20487;-77
2023/06/19 12:50:37;;;;;;;9.65;6.63;;;31.90;45.70;;;;;;5097265;28;20067;-77